createdAt,value
2017-08-19T00:00:10.056Z,70.40
2017-08-19T00:02:36.568Z,70.40
2017-08-19T00:05:03.036Z,70.40
2017-08-19T00:07:29.477Z,70.30
2017-08-19T00:09:55.956Z,70.30
2017-08-19T00:12:22.410Z,70.30
2017-08-19T00:14:48.916Z,70.20
2017-08-19T00:17:16.100Z,69.80
2017-08-19T00:19:42.600Z,69.80
2017-08-19T00:22:09.076Z,69.90
2017-08-19T00:24:35.524Z,70.00
2017-08-19T00:27:02.040Z,70.10
2017-08-19T00:29:28.564Z,70.30
2017-08-19T00:31:55.108Z,69.60
2017-08-19T00:34:21.537Z,70.10
2017-08-19T00:36:48.037Z,70.50
2017-08-19T00:39:15.295Z,71.40
2017-08-19T00:41:41.777Z,71.30
2017-08-19T00:44:08.350Z,70.90
2017-08-19T00:46:34.892Z,71.50
2017-08-19T00:49:01.396Z,70.90
2017-08-19T00:51:27.845Z,71.40
2017-08-19T00:53:54.397Z,71.50
2017-08-19T00:56:20.877Z,71.10
2017-08-19T00:58:47.389Z,70.90
2017-08-19T01:01:13.915Z,70.40
2017-08-19T01:03:40.453Z,70.20
2017-08-19T01:06:07.008Z,70.20
2017-08-19T01:08:33.496Z,70.40
2017-08-19T01:10:59.984Z,71.20
2017-08-19T01:13:26.564Z,71.40
2017-08-19T01:15:53.056Z,71.20
2017-08-19T01:18:19.480Z,71.50
2017-08-19T01:20:46.796Z,71.80
2017-08-19T01:23:13.356Z,71.80
2017-08-19T01:25:52.128Z,72.10
2017-08-19T01:28:18.672Z,72.10
2017-08-19T01:30:45.101Z,72.40
2017-08-19T01:33:11.508Z,72.10
2017-08-19T01:35:37.966Z,72.30
2017-08-19T01:38:04.475Z,72.40
2017-08-19T01:40:30.920Z,72.40
2017-08-19T01:42:57.357Z,71.90
2017-08-19T01:45:23.832Z,71.40
2017-08-19T01:47:50.324Z,71.40
2017-08-19T01:50:16.840Z,71.30
2017-08-19T01:52:43.309Z,71.10
2017-08-19T01:55:09.746Z,70.90
2017-08-19T01:57:36.932Z,71.50
2017-08-19T02:00:03.422Z,71.40
2017-08-19T02:02:29.942Z,71.40
2017-08-19T02:04:57.144Z,70.70
2017-08-19T02:07:23.607Z,70.70
2017-08-19T02:09:50.044Z,70.90
2017-08-19T02:12:16.629Z,70.50
2017-08-19T02:14:43.855Z,70.20
2017-08-19T02:17:10.376Z,70.20
2017-08-19T02:19:36.800Z,70.00
2017-08-19T02:22:03.232Z,70.20
2017-08-19T02:24:29.701Z,70.40
2017-08-19T02:26:56.125Z,70.40
2017-08-19T02:29:22.547Z,70.70
2017-08-19T02:31:49.008Z,71.10
2017-08-19T02:34:15.432Z,71.70
2017-08-19T02:36:42.611Z,71.20
2017-08-19T02:39:09.047Z,71.20
2017-08-19T02:41:35.532Z,71.80
2017-08-19T02:44:01.985Z,72.10
2017-08-19T02:46:29.180Z,72.60
2017-08-19T02:48:55.608Z,72.50
2017-08-19T02:51:22.024Z,72.90
2017-08-19T02:53:48.548Z,73.00
2017-08-19T02:56:14.985Z,72.70
2017-08-19T02:58:41.416Z,72.80
2017-08-19T03:01:07.837Z,72.40
2017-08-19T03:03:34.285Z,72.50
2017-08-19T03:06:00.781Z,72.40
2017-08-19T03:08:27.267Z,72.30
2017-08-19T03:10:53.683Z,72.70
2017-08-19T03:13:20.144Z,72.60
2017-08-19T03:15:46.591Z,72.80
2017-08-19T03:18:13.072Z,72.70
2017-08-19T03:20:39.492Z,72.50
2017-08-19T03:23:06.734Z,72.10
2017-08-19T03:25:33.250Z,72.20
2017-08-19T03:27:59.721Z,72.50
2017-08-19T03:30:26.227Z,72.80
2017-08-19T03:32:53.397Z,72.40
2017-08-19T03:35:20.588Z,72.40
2017-08-19T03:37:47.019Z,72.30
2017-08-19T03:40:13.507Z,72.20
2017-08-19T03:42:40.681Z,71.80
2017-08-19T03:45:07.104Z,71.80
2017-08-19T03:47:33.650Z,71.60
2017-08-19T03:50:00.189Z,71.40
2017-08-19T03:52:26.662Z,71.50
2017-08-19T03:54:53.096Z,71.80
2017-08-19T03:57:19.540Z,72.50
2017-08-19T03:59:45.992Z,73.50
2017-08-19T04:02:12.521Z,73.50
2017-08-19T04:04:39.747Z,73.90
2017-08-19T04:07:06.158Z,73.90
2017-08-19T04:09:32.609Z,73.80
2017-08-19T04:11:59.152Z,74.10
2017-08-19T04:14:25.602Z,74.20
2017-08-19T04:16:52.820Z,74.80
2017-08-19T04:19:19.256Z,74.80
2017-08-19T04:21:45.683Z,74.60
2017-08-19T04:24:12.176Z,74.10
2017-08-19T04:26:38.671Z,74.60
2017-08-19T04:29:05.144Z,74.60
2017-08-19T04:31:31.544Z,73.90
2017-08-19T04:33:57.999Z,73.40
2017-08-19T04:36:25.196Z,73.30
2017-08-19T04:38:51.620Z,73.30
2017-08-19T04:41:18.092Z,73.20
2017-08-19T04:43:44.627Z,72.80
2017-08-19T04:46:11.071Z,72.90
2017-08-19T04:48:37.529Z,72.80
2017-08-19T04:51:03.970Z,73.00
2017-08-19T04:53:30.450Z,73.40
2017-08-19T04:55:56.917Z,73.20
2017-08-19T04:58:23.340Z,73.60
2017-08-19T05:00:50.501Z,73.90
2017-08-19T05:03:17.697Z,74.10
2017-08-19T05:05:44.240Z,73.90
2017-08-19T05:08:11.452Z,74.20
2017-08-19T05:10:37.916Z,74.20
2017-08-19T05:13:04.456Z,74.20
2017-08-19T05:15:30.992Z,74.70
2017-08-19T05:17:57.464Z,73.60
2017-08-19T05:20:24.612Z,73.10
2017-08-19T05:22:51.024Z,73.10
2017-08-19T05:25:17.498Z,73.30
2017-08-19T05:27:43.939Z,72.90
2017-08-19T05:30:10.440Z,72.90
2017-08-19T05:32:36.913Z,73.10
2017-08-19T05:35:03.364Z,73.40
2017-08-19T05:37:29.809Z,73.00
2017-08-19T05:39:56.285Z,73.40
2017-08-19T05:42:22.732Z,73.60
2017-08-19T05:44:49.202Z,73.90
2017-08-19T05:47:15.635Z,74.00
2017-08-19T05:49:42.060Z,73.70
2017-08-19T05:52:08.530Z,73.40
2017-08-19T05:54:34.954Z,73.40
2017-08-19T05:57:01.388Z,73.60
2017-08-19T05:59:27.816Z,74.10
2017-08-19T06:01:54.276Z,74.90
2017-08-19T06:04:21.433Z,76.60
2017-08-19T06:06:47.913Z,75.90
2017-08-19T06:09:14.464Z,75.60
2017-08-19T06:11:40.981Z,74.80
2017-08-19T06:14:07.450Z,74.20
2017-08-19T06:16:33.885Z,74.20
2017-08-19T06:19:00.340Z,74.10
2017-08-19T06:21:26.898Z,73.30
2017-08-19T06:23:53.354Z,72.70
2017-08-19T06:26:19.824Z,71.80
2017-08-19T06:28:47.024Z,71.90
2017-08-19T06:31:13.453Z,71.90
2017-08-19T06:33:39.898Z,72.20
2017-08-19T06:36:06.381Z,72.20
2017-08-19T06:38:32.893Z,71.90
2017-08-19T06:41:00.114Z,72.70
2017-08-19T06:43:26.639Z,72.70
2017-08-19T06:45:53.123Z,73.10
2017-08-19T06:48:19.573Z,73.90
2017-08-19T06:50:46.033Z,74.10
2017-08-19T06:53:12.561Z,73.30
2017-08-19T06:55:39.089Z,72.80
2017-08-19T06:58:05.545Z,71.40
2017-08-19T07:00:31.961Z,73.30
2017-08-19T07:02:58.453Z,72.60
2017-08-19T07:05:24.933Z,72.80
2017-08-19T07:07:51.422Z,73.60
2017-08-19T07:10:17.901Z,74.00
2017-08-19T07:12:44.383Z,74.10
2017-08-19T07:15:11.586Z,73.80
2017-08-19T07:17:38.016Z,73.70
2017-08-19T07:20:04.509Z,73.30
2017-08-19T07:22:31.059Z,73.50
2017-08-19T07:24:57.516Z,73.20
2017-08-19T07:27:24.030Z,72.70
2017-08-19T07:29:50.494Z,72.00
2017-08-19T07:32:16.957Z,71.00
2017-08-19T07:34:44.253Z,72.80
2017-08-19T07:37:10.769Z,72.80
2017-08-19T07:39:37.445Z,73.90
2017-08-19T07:42:03.866Z,73.40
2017-08-19T07:44:30.347Z,71.50
2017-08-19T07:46:57.609Z,70.70
2017-08-19T07:49:24.905Z,70.60
2017-08-19T07:51:51.362Z,70.60
2017-08-19T07:54:17.847Z,68.60
2017-08-19T07:56:44.330Z,68.50
2017-08-19T07:59:10.869Z,67.90
2017-08-19T08:01:37.445Z,65.90
2017-08-19T08:04:03.915Z,65.60
2017-08-19T08:06:30.455Z,65.10
2017-08-19T08:08:56.944Z,65.70
2017-08-19T08:11:23.414Z,66.10
2017-08-19T08:13:49.838Z,66.00
2017-08-19T08:16:16.361Z,64.30
2017-08-19T08:18:42.828Z,62.20
2017-08-19T08:21:09.354Z,62.40
2017-08-19T08:23:35.821Z,59.90
2017-08-19T08:26:03.010Z,61.40
2017-08-19T08:28:29.513Z,61.40
2017-08-19T08:30:56.774Z,64.40
2017-08-19T08:33:23.227Z,63.50
2017-08-19T08:35:49.685Z,62.40
2017-08-19T08:38:16.219Z,62.60
2017-08-19T08:40:42.733Z,61.80
2017-08-19T08:43:09.179Z,62.60
2017-08-19T08:45:35.618Z,61.50
2017-08-19T08:48:02.091Z,62.10
2017-08-19T08:50:29.313Z,64.80
2017-08-19T08:52:55.798Z,64.80
2017-08-19T08:55:22.386Z,65.50
2017-08-19T08:57:48.937Z,65.00
2017-08-19T09:00:15.479Z,65.10
2017-08-19T09:02:41.991Z,60.70
2017-08-19T09:05:08.482Z,59.30
2017-08-19T09:07:34.931Z,58.70
2017-08-19T09:10:01.393Z,56.50
2017-08-19T09:12:27.891Z,57.40
2017-08-19T09:14:54.391Z,54.80
2017-08-19T09:17:20.914Z,51.20
2017-08-19T09:19:47.357Z,52.60
2017-08-19T09:22:13.858Z,52.30
2017-08-19T09:24:40.394Z,51.70
2017-08-19T09:27:06.900Z,50.20
2017-08-19T09:29:33.370Z,48.60
2017-08-19T09:31:59.865Z,44.60
2017-08-19T09:34:26.351Z,46.20
2017-08-19T09:36:52.917Z,44.00
2017-08-19T09:39:19.378Z,47.90
2017-08-19T09:41:45.845Z,46.00
2017-08-19T09:44:12.327Z,47.30
2017-08-19T09:46:38.813Z,45.30
2017-08-19T09:49:05.261Z,45.10
2017-08-19T09:51:32.482Z,46.10
2017-08-19T09:53:59.085Z,45.90
2017-08-19T09:56:25.589Z,46.40
2017-08-19T09:58:52.016Z,47.70
2017-08-19T10:01:18.532Z,47.70
2017-08-19T10:03:44.996Z,46.50
2017-08-19T10:06:12.267Z,45.30
2017-08-19T10:08:46.612Z,45.20
2017-08-19T10:11:20.339Z,44.90
2017-08-19T10:13:46.890Z,44.10
2017-08-19T10:16:13.375Z,43.00
2017-08-19T10:18:39.857Z,43.00
2017-08-19T10:21:07.086Z,42.00
2017-08-19T10:23:34.346Z,39.60
2017-08-19T10:26:00.796Z,39.40
2017-08-19T10:28:27.247Z,39.40
2017-08-19T10:30:53.734Z,39.80
2017-08-19T10:33:20.194Z,40.20
2017-08-19T10:35:46.688Z,38.50
2017-08-19T10:38:13.137Z,37.80
2017-08-19T10:40:41.193Z,39.00
2017-08-19T10:43:07.660Z,39.00
2017-08-19T10:45:34.867Z,40.40
2017-08-19T10:48:01.504Z,40.30
2017-08-19T10:50:28.105Z,41.30
2017-08-19T10:52:55.403Z,40.80
2017-08-19T10:55:21.889Z,40.80
2017-08-19T10:57:48.412Z,40.10
2017-08-19T11:00:14.890Z,42.10
2017-08-19T11:02:41.375Z,40.40
2017-08-19T11:05:08.596Z,39.00
2017-08-19T11:07:35.106Z,39.70
2017-08-19T11:10:01.590Z,38.30
2017-08-19T11:12:28.787Z,38.60
2017-08-19T11:14:55.276Z,38.50
2017-08-19T11:17:21.777Z,37.40
2017-08-19T11:19:48.232Z,38.10
2017-08-19T11:22:14.794Z,39.10
2017-08-19T11:24:41.294Z,40.00
2017-08-19T11:27:07.764Z,40.20
2017-08-19T11:29:34.227Z,40.50
2017-08-19T11:32:00.726Z,40.80
2017-08-19T11:34:27.288Z,40.30
2017-08-19T11:36:53.750Z,40.30
2017-08-19T11:39:20.197Z,41.00
2017-08-19T11:41:46.743Z,40.60
2017-08-19T11:44:13.960Z,40.50
2017-08-19T11:46:40.419Z,40.40
2017-08-19T11:49:06.888Z,40.00
2017-08-19T11:51:33.333Z,41.10
2017-08-19T11:53:59.778Z,42.30
2017-08-19T11:56:26.292Z,42.00
2017-08-19T11:58:52.801Z,41.90
2017-08-19T12:01:20.143Z,41.00
2017-08-19T12:03:46.716Z,41.00
2017-08-19T12:06:13.147Z,42.20
2017-08-19T12:08:39.600Z,41.60
2017-08-19T12:11:06.081Z,41.00
2017-08-19T12:13:32.565Z,41.20
2017-08-19T12:15:59.089Z,40.70
2017-08-19T12:18:25.593Z,41.80
2017-08-19T12:20:52.076Z,39.90
2017-08-19T12:23:18.535Z,40.60
2017-08-19T12:25:45.011Z,40.40
2017-08-19T12:28:11.518Z,40.30
2017-08-19T12:30:38.779Z,40.20
2017-08-19T12:33:06.047Z,40.20
2017-08-19T12:35:32.493Z,40.20
2017-08-19T12:37:58.957Z,39.40
2017-08-19T12:40:25.449Z,40.70
2017-08-19T12:42:51.901Z,40.00
2017-08-19T12:45:18.436Z,39.90
2017-08-19T12:47:45.017Z,40.40
2017-08-19T12:50:11.453Z,41.60
2017-08-19T12:52:37.964Z,40.60
2017-08-19T12:55:04.521Z,41.50
2017-08-19T12:57:30.972Z,41.50
2017-08-19T12:59:57.500Z,42.00
2017-08-19T13:02:24.689Z,39.20
2017-08-19T13:04:51.181Z,39.10
2017-08-19T13:07:17.694Z,40.40
2017-08-19T13:09:44.269Z,40.80
2017-08-19T13:12:11.440Z,39.20
2017-08-19T13:14:37.912Z,39.20
2017-08-19T13:17:04.523Z,40.90
2017-08-19T13:19:31.052Z,44.30
2017-08-19T13:21:57.549Z,45.90
2017-08-19T13:24:23.999Z,46.80
2017-08-19T13:26:50.609Z,46.60
2017-08-19T13:29:17.869Z,45.90
2017-08-19T13:31:44.379Z,45.90
2017-08-19T13:34:10.849Z,47.10
2017-08-19T13:36:37.321Z,47.80
2017-08-19T13:39:03.878Z,46.70
2017-08-19T13:41:30.417Z,47.10
2017-08-19T13:43:56.855Z,47.30
2017-08-19T13:46:24.126Z,47.10
2017-08-19T13:48:51.334Z,47.20
2017-08-19T13:51:19.241Z,48.20
2017-08-19T13:53:46.425Z,47.90
2017-08-19T13:56:12.900Z,47.90
2017-08-19T13:58:39.414Z,47.20
2017-08-19T14:01:05.862Z,47.30
2017-08-19T14:03:32.316Z,47.90
2017-08-19T14:05:59.525Z,47.60
2017-08-19T14:08:26.023Z,47.60
2017-08-19T14:10:52.553Z,46.50
2017-08-19T14:13:19.018Z,47.90
2017-08-19T14:15:45.483Z,47.60
2017-08-19T14:18:11.925Z,47.50
2017-08-19T14:20:38.361Z,48.30
2017-08-19T14:23:05.609Z,48.10
2017-08-19T14:25:32.061Z,48.10
2017-08-19T14:27:58.550Z,47.90
2017-08-19T14:30:25.030Z,47.70
2017-08-19T14:32:52.700Z,47.10
2017-08-19T14:35:19.252Z,47.60
2017-08-19T14:37:45.729Z,47.50
2017-08-19T14:40:12.195Z,47.40
2017-08-19T14:42:38.658Z,47.50
2017-08-19T14:45:05.186Z,48.00
2017-08-19T14:47:31.668Z,48.40
2017-08-19T14:49:58.090Z,48.20
2017-08-19T14:52:24.549Z,48.80
2017-08-19T14:54:50.989Z,48.40
2017-08-19T14:57:17.453Z,47.90
2017-08-19T14:59:43.896Z,48.70
2017-08-19T15:02:10.398Z,48.10
2017-08-19T15:04:37.298Z,48.90
2017-08-19T15:07:03.893Z,48.20
2017-08-19T15:09:30.355Z,48.50
2017-08-19T15:11:56.792Z,48.90
2017-08-19T15:14:23.257Z,48.30
2017-08-19T15:16:49.694Z,48.80
2017-08-19T15:19:16.129Z,48.10
2017-08-19T15:21:43.369Z,48.70
2017-08-19T15:24:09.809Z,48.60
2017-08-19T15:26:36.266Z,47.80
2017-08-19T15:29:02.876Z,48.30
2017-08-19T15:31:29.341Z,48.20
2017-08-19T15:33:55.778Z,48.00
2017-08-19T15:36:22.272Z,48.10
2017-08-19T15:38:48.829Z,47.50
2017-08-19T15:41:15.358Z,47.20
2017-08-19T15:43:42.604Z,48.50
2017-08-19T15:46:09.840Z,47.00
2017-08-19T15:48:36.351Z,47.00
2017-08-19T15:51:02.796Z,47.00
2017-08-19T15:53:29.261Z,47.70
2017-08-19T15:55:55.729Z,47.10
2017-08-19T15:58:22.209Z,46.90
2017-08-19T16:00:48.715Z,47.60
2017-08-19T16:03:15.210Z,47.50
2017-08-19T16:05:41.670Z,47.90
2017-08-19T16:08:08.117Z,47.80
2017-08-19T16:10:34.625Z,48.00
2017-08-19T16:13:01.092Z,48.30
2017-08-19T16:15:27.543Z,47.60
2017-08-19T16:17:54.033Z,47.40
2017-08-19T16:20:20.564Z,47.30
2017-08-19T16:22:47.094Z,46.70
2017-08-19T16:25:13.537Z,46.40
2017-08-19T16:27:40.025Z,47.30
2017-08-19T16:30:07.261Z,46.70
2017-08-19T16:32:33.726Z,46.70
2017-08-19T16:35:00.305Z,47.20
2017-08-19T16:37:26.832Z,46.00
2017-08-19T16:39:53.277Z,45.80
2017-08-19T16:42:19.728Z,45.90
2017-08-19T16:44:46.186Z,45.80
2017-08-19T16:47:12.658Z,46.60
2017-08-19T16:49:39.191Z,45.50
2017-08-19T16:52:05.640Z,45.80
2017-08-19T16:54:32.818Z,46.10
2017-08-19T16:57:00.005Z,46.50
2017-08-19T16:59:26.438Z,47.00
2017-08-19T17:01:52.915Z,46.40
2017-08-19T17:04:19.398Z,46.30
2017-08-19T17:06:45.827Z,46.80
2017-08-19T17:09:12.302Z,46.70
2017-08-19T17:11:39.074Z,46.50
2017-08-19T17:14:05.558Z,46.20
2017-08-19T17:16:32.086Z,46.20
2017-08-19T17:18:58.594Z,46.40
2017-08-19T17:21:25.076Z,46.90
2017-08-19T17:23:51.575Z,47.00
2017-08-19T17:26:18.045Z,47.30
2017-08-19T17:28:44.509Z,47.00
2017-08-19T17:31:11.755Z,47.20
2017-08-19T17:33:38.235Z,47.10
2017-08-19T17:36:04.690Z,47.30
2017-08-19T17:38:31.215Z,47.00
2017-08-19T17:40:57.730Z,47.60
2017-08-19T17:43:24.285Z,48.20
2017-08-19T17:45:50.811Z,48.90
2017-08-19T17:48:17.281Z,49.90
2017-08-19T17:50:44.577Z,49.60
2017-08-19T17:53:11.042Z,49.60
2017-08-19T17:55:37.562Z,49.30
2017-08-19T17:58:04.029Z,49.60
2017-08-19T18:00:30.477Z,49.60
2017-08-19T18:02:57.678Z,50.40
2017-08-19T18:05:24.147Z,50.30
2017-08-19T18:07:50.666Z,50.20
2017-08-19T18:10:17.106Z,50.20
2017-08-19T18:12:43.614Z,50.50
2017-08-19T18:15:10.070Z,50.30
2017-08-19T18:17:36.594Z,50.80
2017-08-19T18:20:03.166Z,50.40
2017-08-19T18:22:29.656Z,50.70
2017-08-19T18:24:56.120Z,50.60
2017-08-19T18:27:22.612Z,51.10
2017-08-19T18:29:49.106Z,51.00
2017-08-19T18:32:16.335Z,51.30
2017-08-19T18:34:42.798Z,51.40
2017-08-19T18:37:10.177Z,51.30
2017-08-19T18:39:36.670Z,51.50
2017-08-19T18:42:03.885Z,52.30
2017-08-19T18:44:30.365Z,52.20
2017-08-19T18:46:56.829Z,52.40
2017-08-19T18:49:23.331Z,52.70
2017-08-19T18:51:49.790Z,52.40
2017-08-19T18:54:16.289Z,52.50
2017-08-19T18:56:42.836Z,52.60
2017-08-19T18:59:10.098Z,52.70
2017-08-19T19:01:36.639Z,52.60
2017-08-19T19:04:03.119Z,52.70
2017-08-19T19:06:29.581Z,53.20
2017-08-19T19:08:56.085Z,53.20
2017-08-19T19:11:22.585Z,53.40
2017-08-19T19:13:49.112Z,52.90
2017-08-19T19:16:15.561Z,52.90
2017-08-19T19:18:42.062Z,52.70
2017-08-19T19:21:08.581Z,53.30
2017-08-19T19:23:35.007Z,53.00
2017-08-19T19:26:01.458Z,52.50
2017-08-19T19:28:27.922Z,53.00
2017-08-19T19:30:54.414Z,52.10
2017-08-19T19:33:21.609Z,52.10
2017-08-19T19:35:48.840Z,52.50
2017-08-19T19:38:15.308Z,52.50
2017-08-19T19:40:41.825Z,52.20
2017-08-19T19:43:08.365Z,52.30
2017-08-19T19:45:34.869Z,52.20
2017-08-19T19:48:02.073Z,52.80
2017-08-19T19:50:28.555Z,52.70
2017-08-19T19:52:55.086Z,52.70
2017-08-19T19:55:21.554Z,52.70
2017-08-19T19:57:47.989Z,52.50
2017-08-19T20:00:14.482Z,52.50
2017-08-19T20:02:41.713Z,53.20
2017-08-19T20:05:08.188Z,53.20
2017-08-19T20:07:34.707Z,53.30
2017-08-19T20:10:01.169Z,53.90
2017-08-19T20:12:27.650Z,54.90
2017-08-19T20:14:54.888Z,55.50
2017-08-19T20:17:22.105Z,55.40
2017-08-19T20:19:48.665Z,55.50
2017-08-19T20:22:15.138Z,57.30
2017-08-19T20:24:41.624Z,57.60
2017-08-19T20:27:08.144Z,59.50
2017-08-19T20:29:34.597Z,58.90
2017-08-19T20:32:01.043Z,58.30
2017-08-19T20:34:28.424Z,58.00
2017-08-19T20:36:55.006Z,57.80
2017-08-19T20:39:21.445Z,57.40
2017-08-19T20:41:47.906Z,57.40
2017-08-19T20:44:14.442Z,57.70
2017-08-19T20:46:40.899Z,58.50
2017-08-19T20:49:07.373Z,58.30
2017-08-19T20:51:33.857Z,58.00
2017-08-19T20:54:00.313Z,57.90
2017-08-19T20:56:26.791Z,57.80
2017-08-19T20:58:53.328Z,57.60
2017-08-19T21:01:19.788Z,57.60
2017-08-19T21:03:47.083Z,59.10
2017-08-19T21:06:13.576Z,59.10
2017-08-19T21:08:40.789Z,59.70
2017-08-19T21:11:07.619Z,59.50
2017-08-19T21:13:34.093Z,59.40
2017-08-19T21:16:01.252Z,59.60
2017-08-19T21:18:28.482Z,58.60
2017-08-19T21:20:55.036Z,58.60
2017-08-19T21:23:22.491Z,58.90
2017-08-19T21:25:49.710Z,58.90
2017-08-19T21:28:16.980Z,58.80
2017-08-19T21:30:43.437Z,58.60
2017-08-19T21:33:10.618Z,58.70
2017-08-19T21:35:37.108Z,58.60
2017-08-19T21:38:04.316Z,58.40
2017-08-19T21:40:30.745Z,58.20
2017-08-19T21:42:57.206Z,58.00
2017-08-19T21:45:23.634Z,58.30
2017-08-19T21:47:50.124Z,58.40
2017-08-19T21:50:16.663Z,57.90
2017-08-19T21:52:43.116Z,59.90
2017-08-19T21:55:09.598Z,61.70
2017-08-19T21:57:36.061Z,62.50
2017-08-19T22:00:02.617Z,63.10
2017-08-19T22:02:29.137Z,62.30
2017-08-19T22:04:55.573Z,62.30
2017-08-19T22:07:22.046Z,61.70
2017-08-19T22:09:49.268Z,60.70
2017-08-19T22:12:15.760Z,60.70
2017-08-19T22:14:42.231Z,61.50
2017-08-19T22:17:08.761Z,62.40
2017-08-19T22:19:35.189Z,63.40
2017-08-19T22:22:01.685Z,64.00
2017-08-19T22:24:28.159Z,65.10
2017-08-19T22:26:54.676Z,65.30
2017-08-19T22:29:21.124Z,65.20
2017-08-19T22:31:47.541Z,65.20
2017-08-19T22:34:14.023Z,65.70
2017-08-19T22:36:40.457Z,65.90
2017-08-19T22:39:06.944Z,66.10
2017-08-19T22:41:33.462Z,65.70
2017-08-19T22:43:59.965Z,64.90
2017-08-19T22:46:26.446Z,64.10
2017-08-19T22:48:52.922Z,63.70
2017-08-19T22:51:19.400Z,63.90
2017-08-19T22:53:45.873Z,64.70
2017-08-19T22:56:12.381Z,64.80
2017-08-19T22:58:38.857Z,64.00
2017-08-19T23:01:05.312Z,64.40
2017-08-19T23:03:31.800Z,65.20
2017-08-19T23:05:58.281Z,65.80
2017-08-19T23:08:24.808Z,64.00
2017-08-19T23:10:52.007Z,65.50
2017-08-19T23:13:18.595Z,65.40
2017-08-19T23:15:45.947Z,67.50
2017-08-19T23:18:12.482Z,66.60
2017-08-19T23:20:38.928Z,66.80
2017-08-19T23:23:05.385Z,66.70
2017-08-19T23:25:31.893Z,66.40
2017-08-19T23:27:59.077Z,65.00
2017-08-19T23:30:25.521Z,64.90
2017-08-19T23:32:51.989Z,64.30
2017-08-19T23:35:19.158Z,64.30
2017-08-19T23:37:45.609Z,64.20
2017-08-19T23:40:12.083Z,64.90
2017-08-19T23:42:38.648Z,65.90
2017-08-19T23:45:05.841Z,66.20
2017-08-19T23:47:32.294Z,66.10
2017-08-19T23:49:59.527Z,68.40
2017-08-19T23:52:26.766Z,68.70
2017-08-19T23:54:53.229Z,68.70
2017-08-19T23:57:19.674Z,68.50
2017-08-19T23:59:46.125Z,68.40
